EW8201 Weather Reports


Display with metric or nautical units.
time (UTC)temp
F
wind
direction
speed
MPH
gust
MPH
rain 1hr
in
rain 24hr
in
rain mn
in
humidity
%
barometer
mb
20191114223103 43 100 2.0 7.0 0.00 0.00 0.00 79 1021.2
20191114221511 44 146 1.0 5.0 0.00 0.00 0.00 77 1021.2
20191114220030 44 184 3.0 5.0 0.00 0.00 0.00 71 1021.4
20191114214507 44 275 1.0 2.0 0.00 0.00 0.00 73 1021.6
20191114213000 44 275 0.0 0.0 0.00 0.00 0.00 73 1021.7
20191114210109 42 276 0.0 0.0 0.00 0.00 0.00 76 1022.1
20191114204544 41 276 0.0 0.0 0.00 0.00 0.00 77 1022.4
20191114203043 40 276 0.0 2.0 0.00 0.00 0.00 76 1022.6
20191114201545 40 276 0.0 2.0 0.00 0.00 0.00 76 1022.7
20191114200045 39 276 0.0 3.0 0.00 0.00 0.00 80 1022.8
20191114194534 38 276 1.0 4.0 0.00 0.00 0.00 84 1023.2
20191114193024 36 254 1.0 4.0 0.00 0.00 0.00 88 1023.4
20191114191534 35 254 3.0 5.0 0.00 0.00 0.00 87 1023.6
20191114190019 35 245 4.0 7.0 0.00 0.00 0.00 87 1023.8
20191114184504 35 235 3.0 5.0 0.00 0.00 0.00 87 1024.0
20191114183003 35 217 4.0 6.0 0.00 0.00 0.00 87 1024.1
20191114181642 34 234 3.0 8.0 0.00 0.00 0.00 88 1024.2
20191114180129 33 248 3.0 5.0 0.00 0.00 0.00 89 1024.6
20191114174656 32 242 3.0 5.0 0.00 0.00 0.00 90 1024.6
20191114173119 32 232 3.0 7.0 0.00 0.00 0.00 91 1024.7
20191114171645 31 225 5.0 8.0 0.00 0.00 0.00 92 1024.6
20191114170129 30 226 3.0 5.0 0.00 0.00 0.00 92 1024.6
20191114164605 30 240 2.0 4.0 0.00 0.00 0.00 92 1024.6
20191114163148 29 204 3.0 4.0 0.00 0.00 0.00 93 1024.6
20191114161654 28 203 1.0 2.0 0.00 0.00 0.00 94 1024.6
20191114160204 26 203 0.0 2.0 0.00 0.00 0.00 94 1024.6
20191114154633 25 203 0.0 2.0 0.00 0.01 0.00 93 1024.7
20191114153159 24 202 2.0 3.0 0.00 0.01 0.00 93 1024.6
20191114151654 24 202 1.0 3.0 0.00 0.01 0.00 94 1024.4
20191114150155 23 201 1.0 3.0 0.00 0.01 0.00 93 1024.1
20191114144658 23 201 1.0 2.0 0.00 0.01 0.00 92 1024.3
20191114143206 23 201 0.0 0.0 0.00 0.01 0.00 92 1024.3
20191114141610 23 201 1.0 3.0 0.00 0.01 0.00 92 1024.1
20191114140124 23 201 0.0 1.0 0.00 0.01 0.00 90 1024.2
20191114134627 23 201 0.0 0.0 0.00 0.01 0.00 90 1024.2
20191114133121 23 201 0.0 1.0 0.00 0.01 0.00 90 1024.2
20191114131625 24 201 1.0 2.0 0.00 0.01 0.00 89 1024.3
20191114130135 25 201 0.0 3.0 0.00 0.01 0.00 90 1024.5
20191114124533 25 200 2.0 4.0 0.00 0.01 0.00 93 1024.6
20191114123112 25 200 1.0 3.0 0.00 0.01 0.00 93 1024.5
20191114121608 24 200 1.0 3.0 0.00 0.01 0.00 92 1024.5
20191114120106 24 200 1.0 3.0 0.00 0.01 0.00 92 1024.5
20191114114558 24 200 0.0 0.0 0.00 0.01 0.00 92 1024.3
20191114113152 24 200 0.0 0.0 0.00 0.01 0.00 91 1024.3
20191114111539 25 199 0.0 0.0 0.00 0.01 0.00 92 1024.3
20191114110028 25 199 0.0 0.0 0.00 0.01 0.00 92 1024.4
20191114104531 25 199 0.0 0.0 0.00 0.01 0.00 92 1024.5
20191114103032 25 199 0.0 0.0 0.00 0.01 0.00 91 1024.4
20191114101558 25 199 0.0 0.0 0.00 0.01 0.00 92 1024.4
20191114100036 26 199 0.0 0.0 0.00 0.01 0.00 92 1024.6
20191114094534 26 199 0.0 0.0 0.00 0.01 0.00 92 1024.7
20191114093024 26 199 0.0 0.0 0.00 0.01 0.00 92 1024.9
20191114091604 26 199 0.0 3.0 0.00 0.01 0.00 92 1024.7
20191114090026 25 200 0.0 1.0 0.00 0.01 0.00 92 1024.7
20191114084518 25 200 1.0 3.0 0.00 0.01 0.00 90 1024.6
20191114083015 26 200 1.0 3.0 0.00 0.01 0.00 91 1024.6
20191114081514 26 200 0.0 0.0 0.00 0.01 0.00 91 1024.6
20191114080015 26 200 0.0 0.0 0.00 0.01 0.00 90 1024.6
20191114074502 27 200 0.0 0.0 0.00 0.01 0.00 89 1024.6
20191114073151 27 200 0.0 0.0 0.00 0.01 0.00 86 1024.8
20191114071647 29 200 0.0 0.0 0.00 0.01 0.00 84 1024.8
20191114070200 30 200 2.0 5.0 0.00 0.01 0.00 87 1024.9
20191114064647 30 199 2.0 5.0 0.00 0.01 0.01 88 1024.7
20191114063113 29 198 4.0 7.0 0.00 0.01 0.01 87 1024.7
20191114061643 30 198 4.0 6.0 0.00 0.01 0.01 83 1024.7
20191114060144 33 309 2.0 4.0 0.00 0.01 0.01 81 1024.7
20191114054645 33 309 0.0 3.0 0.00 0.01 0.01 80 1024.8
20191114053216 34 288 3.0 7.0 0.00 0.01 0.01 81 1024.9
20191114051633 33 234 2.0 6.0 0.00 0.01 0.01 82 1024.8
20191114050132 32 355 1.0 3.0 0.00 0.01 0.01 85 1024.5
20191114044607 32 355 0.0 2.0 0.00 0.01 0.01 85 1024.4
20191114043121 32 355 0.0 3.0 0.00 0.01 0.01 84 1024.4
20191114041622 32 355 3.0 5.0 0.00 0.01 0.01 84 1024.2
20191114040123 32 340 4.0 6.0 0.00 0.01 0.01 84 1024.4
20191114034637 32 336 0.0 2.0 0.00 0.02 0.01 84 1024.5
20191114033055 32 336 0.0 3.0 0.00 0.02 0.01 83 1024.4
20191114031651 33 336 0.0 5.0 0.00 0.02 0.01 83 1024.4
20191114030130 33 343 3.0 5.0 0.00 0.02 0.01 85 1024.2
20191114024551 33 344 2.0 4.0 0.00 0.05 0.01 87 1024.0
20191114023106 32 344 2.0 4.0 0.00 0.05 0.01 87 1023.9
20191114021616 33 350 4.0 6.0 0.00 0.05 0.01 83 1023.8
20191114020043 35 277 2.0 6.0 0.00 0.05 0.01 81 1023.8
20191114014616 35 229 3.0 5.0 0.00 0.05 0.01 83 1023.9
20191114013108 35 229 2.0 3.0 0.00 0.05 0.01 83 1023.7
20191114011530 35 224 0.0 6.0 0.00 0.05 0.01 81 1023.5
20191114010104 36 213 1.0 5.0 0.00 0.05 0.01 78 1023.5
20191114004550 37 212 2.0 4.0 0.00 0.06 0.01 78 1023.4
20191114003037 37 211 3.0 4.0 0.00 0.06 0.01 77 1023.2
20191114001541 37 207 3.0 5.0 0.00 0.06 0.01 77 1023.0
20191114000028 39 360 1.0 2.0 0.00 0.06 0.01 73 1022.9
20191113234549 40 360 0.0 0.0 0.00 0.08 0.01 72 1022.9
20191113233049 41 360 2.0 4.0 0.00 0.08 0.01 73 1022.9
20191113231525 42 360 2.0 4.0 0.00 0.08 0.01 73 1022.9
20191113230059 44 355 2.0 5.0 0.00 0.08 0.01 70 1022.8
20191113224519 45 344 4.0 8.0 0.00 0.09 0.01 68 1022.7